Alamos, Argentina
Current Conditions -  °F | °C
As of 6:00 PM on Saturday 20 Dec 2014 (Local Time) from SAEZ Reporting Station
Few Clouds Few Clouds  
Wind Chill: 75°   Ceiling: Unl
Heat Index: 75°   Visibility: 6mi
Dew Point: 61°   Wind: 13mph
Humidity: 61%   Direction: 130°SE
Pressure: 29.56"   Gusts: NA
Location:  36.97°S, 62.38°W
Report Text: SAEZ 202100Z 13011KT 090V160 9999 FEW035 24/16 Q1001
Loading
Personal Weather Stations






























Interactive Weather Map New forecast layout! Learn more

10-Day Weather Forecast

Advertisements
Track Severe Weather on mobile